Time;durP1;ratioP1;P1;durP2;ratioP2;P2;SDS_P1;SDS_P2;PMS_P1;PMS_P2;Temp;Humidity;BMP_temperature;BMP_pressure;BME280_temperature;BME280_humidity;BME280_pressure;Samples;Min_cycle;Max_cycle;Signal;HPM_P1;HPM_P2
2021/11/12 00:03:23;;;;;;;18.73;11.00;;;17.50;61.60;;;;;;10363738;28;20690;-67
2021/11/12 00:14:26;;;;;;;15.60;10.20;;;17.50;61.50;;;;;;10454726;28;20236;-66
2021/11/12 00:19:51;;;;;;;17.57;10.17;;;17.50;61.60;;;;;;10454891;28;20715;-66
2021/11/12 00:25:14;;;;;;;16.47;10.00;;;17.50;61.80;;;;;;10453401;28;20224;-65
2021/11/12 00:30:49;;;;;;;16.50;10.87;;;17.40;61.80;;;;;;10453809;28;20619;-65
2021/11/12 00:36:27;;;;;;;15.27;10.37;;;17.50;61.90;;;;;;10453619;28;20217;-65
2021/11/12 00:41:59;;;;;;;16.47;11.13;;;17.50;61.80;;;;;;10453013;28;20189;-65
2021/11/12 00:47:25;;;;;;;18.13;10.77;;;17.50;61.60;;;;;;10452392;28;20224;-65
2021/11/12 00:58:26;;;;;;;15.53;10.70;;;17.50;61.60;;;;;;10453660;28;20209;-64
2021/11/12 01:03:49;;;;;;;15.67;10.07;;;17.50;61.80;;;;;;10453488;28;20220;-65
2021/11/12 01:09:13;;;;;;;16.60;10.40;;;17.40;61.80;;;;;;10436430;22;20241;-64
2021/11/12 01:14:36;;;;;;;14.03;8.93;;;17.40;61.80;;;;;;10410373;28;20197;-64
2021/11/12 01:19:59;;;;;;;19.03;11.60;;;17.50;61.90;;;;;;10363590;28;20230;-64
2021/11/12 01:25:23;;;;;;;19.33;12.33;;;17.50;61.70;;;;;;10367203;28;20210;-63
2021/11/12 01:30:46;;;;;;;14.43;10.17;;;17.50;61.60;;;;;;10367011;28;20218;-64
2021/11/12 01:36:19;;;;;;;16.97;10.77;;;17.50;61.60;;;;;;10366112;28;20214;-64
2021/11/12 01:41:46;;;;;;;17.03;10.83;;;17.40;61.70;;;;;;10369398;28;20288;-65
2021/11/12 01:47:15;;;;;;;19.40;12.40;;;17.40;61.80;;;;;;10369904;28;20225;-64
2021/11/12 01:52:41;;;;;;;14.03;9.40;;;17.40;61.90;;;;;;10396238;28;20209;-64
2021/11/12 01:58:16;;;;;;;17.20;11.40;;;17.40;61.90;;;;;;10415267;28;20213;-64
2021/11/12 02:03:39;;;;;;;19.13;12.37;;;17.40;61.60;;;;;;10420807;28;20190;-64
2021/11/12 02:09:05;;;;;;;20.80;12.63;;;17.50;61.60;;;;;;10418592;28;20307;-64
2021/11/12 02:14:29;;;;;;;17.87;11.30;;;17.50;61.60;;;;;;10406042;28;20199;-64
2021/11/12 02:19:57;;;;;;;16.50;10.77;;;17.40;61.70;;;;;;10371380;28;20218;-64
2021/11/12 02:25:27;;;;;;;15.57;10.93;;;17.40;61.90;;;;;;10375290;28;20264;-64
2021/11/12 02:30:52;;;;;;;15.00;10.60;;;17.40;61.90;;;;;;10375653;28;20218;-64
2021/11/12 02:36:15;;;;;;;17.73;11.37;;;17.50;61.90;;;;;;10378795;28;20229;-64
2021/11/12 02:41:40;;;;;;;22.47;11.97;;;17.50;61.80;;;;;;10375089;28;20674;-64
2021/11/12 02:47:03;;;;;;;17.67;11.33;;;17.50;61.70;;;;;;10376207;28;20214;-64
2021/11/12 02:52:25;;;;;;;16.97;10.47;;;17.50;61.60;;;;;;10375387;28;20222;-64
2021/11/12 02:57:49;;;;;;;15.33;9.87;;;17.40;61.60;;;;;;10375380;28;20211;-65
2021/11/12 03:03:11;;;;;;;15.93;9.80;;;17.40;61.80;;;;;;10375223;28;20194;-64
2021/11/12 03:08:33;;;;;;;16.97;9.77;;;17.40;61.90;;;;;;10373168;28;20230;-64
2021/11/12 03:13:56;;;;;;;14.23;9.00;;;17.40;61.90;;;;;;10367790;28;20581;-64
2021/11/12 03:19:23;;;;;;;15.17;9.37;;;17.50;61.90;;;;;;10374086;28;20214;-64
2021/11/12 03:24:48;;;;;;;15.47;9.20;;;17.40;61.60;;;;;;10370597;28;20278;-64
2021/11/12 03:30:44;;;;;;;14.57;9.27;;;17.40;61.60;;;;;;10369435;28;20725;-65
2021/11/12 04:04:39;;;;;;;15.40;9.13;;;17.40;61.70;;;;;;10372744;28;20654;-65
2021/11/12 05:46:47;;;;;;;10.87;7.80;;;17.60;61.10;;;;;;10385754;28;20216;-65
2021/11/12 05:55:03;;;;;;;13.00;7.67;;;17.60;61.10;;;;;;10368915;28;20211;-64
2021/11/12 05:57:59;;;;;;;10.90;7.57;;;17.60;61.00;;;;;;10366367;28;20618;-65
2021/11/12 06:03:22;;;;;;;10.27;6.40;;;17.60;61.00;;;;;;10368492;28;20686;-64
2021/11/12 06:08:45;;;;;;;10.27;6.90;;;17.70;61.00;;;;;;10368660;28;20234;-65
2021/11/12 06:14:07;;;;;;;9.43;6.90;;;17.70;61.00;;;;;;10363258;28;20209;-64
2021/11/12 06:19:30;;;;;;;9.13;6.13;;;17.70;61.00;;;;;;10390017;28;20596;-64
2021/11/12 06:24:53;;;;;;;10.30;7.00;;;17.70;61.00;;;;;;10379434;28;20195;-65
2021/11/12 06:30:15;;;;;;;8.87;5.63;;;17.70;60.90;;;;;;10360623;28;20223;-64
2021/11/12 06:35:39;;;;;;;8.83;5.60;;;17.70;60.80;;;;;;10332342;28;20357;-65
2021/11/12 06:41:06;;;;;;;7.13;5.10;;;17.70;60.80;;;;;;10331712;28;20199;-65
2021/11/12 06:52:09;;;;;;;6.80;5.40;;;17.60;60.60;;;;;;10337555;28;20305;-64
2021/11/12 06:57:31;;;;;;;6.13;4.87;;;17.70;60.40;;;;;;10331261;28;20226;-64
2021/11/12 07:02:55;;;;;;;7.30;5.53;;;17.70;60.50;;;;;;10331201;28;20211;-65
2021/11/12 07:08:19;;;;;;;5.17;4.23;;;17.70;60.20;;;;;;10340966;28;20234;-66
2021/11/12 07:13:41;;;;;;;6.60;4.43;;;17.70;60.30;;;;;;10343930;28;20241;-64
2021/11/12 07:19:04;;;;;;;6.20;4.47;;;17.70;60.50;;;;;;10332977;28;20215;-65
2021/11/12 07:24:28;;;;;;;6.73;4.70;;;17.70;60.40;;;;;;10375271;22;20682;-65
2021/11/12 07:29:50;;;;;;;5.33;4.00;;;17.70;60.40;;;;;;10462479;28;20301;-64
2021/11/12 07:35:16;;;;;;;6.63;4.33;;;17.60;60.40;;;;;;10453568;28;20735;-65
2021/11/12 07:40:59;;;;;;;5.73;3.87;;;17.60;60.40;;;;;;10414853;28;20251;-64
2021/11/12 07:46:31;;;;;;;5.30;4.17;;;17.70;60.50;;;;;;10412661;28;20245;-64
2021/11/12 07:51:55;;;;;;;5.30;3.97;;;17.70;60.50;;;;;;10412800;28;20214;-64
2021/11/12 07:57:19;;;;;;;6.67;4.47;;;17.60;60.50;;;;;;10386673;28;20230;-65
2021/11/12 08:02:41;;;;;;;5.90;4.30;;;17.60;60.50;;;;;;10372537;28;20220;-64
2021/11/12 08:08:06;;;;;;;5.70;4.03;;;17.70;60.60;;;;;;10384122;28;20597;-65
2021/11/12 08:13:36;;;;;;;6.87;4.37;;;17.70;60.60;;;;;;10445063;28;20213;-64
2021/11/12 08:19:00;;;;;;;5.77;4.00;;;17.70;60.60;;;;;;10423166;28;20673;-66
2021/11/12 08:24:33;;;;;;;6.13;4.30;;;17.70;60.70;;;;;;10406775;28;20238;-65
2021/11/12 08:35:55;;;;;;;8.43;4.10;;;17.70;60.60;;;;;;10350766;28;20217;-64
2021/11/12 08:41:20;;;;;;;6.87;4.20;;;17.70;60.70;;;;;;10400092;28;20199;-64
2021/11/12 08:46:49;;;;;;;7.50;4.33;;;17.70;60.60;;;;;;10379364;28;20222;-64
2021/11/12 08:52:14;;;;;;;5.20;3.90;;;17.80;60.70;;;;;;10380079;28;20217;-64
2021/11/12 08:57:36;;;;;;;5.80;4.27;;;17.80;60.70;;;;;;10384162;28;20302;-65
2021/11/12 09:03:00;;;;;;;4.73;3.23;;;17.80;60.70;;;;;;10388869;28;20242;-64
2021/11/12 09:08:22;;;;;;;5.40;3.90;;;17.80;60.80;;;;;;10387897;28;20226;-64
2021/11/12 09:13:47;;;;;;;5.73;3.97;;;17.80;61.40;;;;;;10386617;28;20237;-66
2021/11/12 09:19:10;;;;;;;7.33;4.27;;;17.80;60.70;;;;;;10392256;28;20205;-65
2021/11/12 09:24:33;;;;;;;4.80;3.57;;;17.80;60.90;;;;;;10388553;28;20280;-64
2021/11/12 09:29:55;;;;;;;5.27;3.73;;;17.80;61.00;;;;;;10387648;28;20215;-64
2021/11/12 09:35:18;;;;;;;6.53;4.77;;;17.80;61.30;;;;;;10401646;28;20303;-64
2021/11/12 09:40:41;;;;;;;7.23;4.67;;;17.80;61.20;;;;;;10408568;28;20550;-63
2021/11/12 09:46:04;;;;;;;10.20;5.70;;;17.80;61.20;;;;;;10387360;28;20588;-64
2021/11/12 09:51:28;;;;;;;8.93;5.57;;;17.80;61.30;;;;;;10387653;28;20210;-63
2021/11/12 09:56:50;;;;;;;8.33;5.53;;;17.80;61.40;;;;;;10386690;28;20245;-64
2021/11/12 10:02:14;;;;;;;8.33;5.03;;;17.90;61.50;;;;;;10392274;28;20190;-63
2021/11/12 10:07:38;;;;;;;6.77;4.83;;;17.90;61.50;;;;;;10394282;28;20595;-64
2021/11/12 10:13:00;;;;;;;6.40;4.10;;;17.90;61.60;;;;;;10404605;28;20705;-64
2021/11/12 10:18:22;;;;;;;4.37;3.57;;;17.90;61.80;;;;;;10395947;28;20241;-64
2021/11/12 10:23:46;;;;;;;5.73;3.80;;;18.00;62.20;;;;;;10408879;28;20194;-64
2021/11/12 10:29:10;;;;;;;4.20;3.60;;;18.00;62.00;;;;;;10402844;28;20198;-64
2021/11/12 10:34:35;;;;;;;4.17;3.30;;;18.00;62.00;;;;;;10399013;28;20226;-64
2021/11/12 10:40:04;;;;;;;4.23;3.40;;;18.10;62.40;;;;;;10399114;28;20203;-63
2021/11/12 10:45:28;;;;;;;4.27;3.33;;;18.10;62.20;;;;;;10405202;28;20596;-64
2021/11/12 10:50:52;;;;;;;3.90;2.70;;;18.10;62.30;;;;;;10404796;28;20263;-64
2021/11/12 10:56:15;;;;;;;5.40;3.43;;;18.10;62.20;;;;;;10402946;28;20565;-65
2021/11/12 11:01:38;;;;;;;5.37;3.30;;;18.10;61.80;;;;;;10398210;28;20201;-64
2021/11/12 11:07:19;;;;;;;4.90;3.70;;;18.00;61.70;;;;;;10397010;28;20218;-64
2021/11/12 11:12:44;;;;;;;4.33;3.40;;;18.00;61.40;;;;;;10402503;28;20237;-64
2021/11/12 11:18:19;;;;;;;4.57;3.30;;;18.00;61.60;;;;;;10404824;28;20229;-64
2021/11/12 11:23:45;;;;;;;4.43;3.50;;;18.00;61.60;;;;;;10409859;28;20305;-64
2021/11/12 11:29:11;;;;;;;3.90;3.10;;;18.00;61.60;;;;;;10403531;28;20203;-64
2021/11/12 11:34:34;;;;;;;5.13;3.27;;;17.90;61.40;;;;;;10402633;28;20596;-65
2021/11/12 11:39:58;;;;;;;3.90;3.07;;;17.90;61.50;;;;;;10402439;28;20197;-65
2021/11/12 11:45:22;;;;;;;3.70;2.57;;;17.90;61.60;;;;;;10411504;28;20713;-65
2021/11/12 11:50:52;;;;;;;3.57;2.53;;;18.00;61.40;;;;;;10406472;28;20685;-65
2021/11/12 11:56:19;;;;;;;2.63;2.33;;;17.90;61.30;;;;;;10403685;28;20293;-66
2021/11/12 12:01:47;;;;;;;2.40;2.20;;;17.90;61.20;;;;;;10404879;28;20244;-66
2021/11/12 12:07:31;;;;;;;2.40;2.03;;;17.90;61.10;;;;;;10406926;28;20214;-65
2021/11/12 12:12:57;;;;;;;2.30;1.90;;;17.90;60.90;;;;;;10394690;28;20592;-66
2021/11/12 12:18:27;;;;;;;2.33;1.80;;;17.90;61.00;;;;;;10404660;28;20229;-65
2021/11/12 13:21:07;;;;;;;1.53;1.10;;;18.00;60.90;;;;;;10387330;28;20205;-64
2021/11/12 13:26:30;;;;;;;2.17;1.40;;;18.00;60.60;;;;;;10406399;22;20237;-65
2021/11/12 13:31:59;;;;;;;1.90;1.30;;;18.00;61.00;;;;;;10417272;28;20723;-65
2021/11/12 13:37:23;;;;;;;1.47;1.13;;;18.00;60.80;;;;;;10406512;28;20237;-65
2021/11/12 13:42:49;;;;;;;2.00;1.10;;;18.00;60.80;;;;;;10407868;28;20209;-65
2021/11/12 13:48:11;;;;;;;2.03;1.17;;;17.90;60.80;;;;;;10418312;28;20224;-66
2021/11/12 13:53:34;;;;;;;1.80;1.20;;;18.00;61.20;;;;;;10437985;28;20304;-65
2021/11/12 13:59:13;;;;;;;4.80;1.57;;;18.00;61.30;;;;;;10446297;28;20227;-66
2021/11/12 14:04:35;;;;;;;2.47;1.47;;;18.00;61.50;;;;;;10435816;28;20213;-66
2021/11/12 14:10:01;;;;;;;1.63;1.00;;;18.00;61.20;;;;;;10415095;28;20193;-65
2021/11/12 14:15:28;;;;;;;3.07;1.33;;;18.00;60.80;;;;;;10415523;28;20241;-66
2021/11/12 14:21:07;;;;;;;1.73;1.20;;;18.00;60.80;;;;;;10418063;28;20719;-65
2021/11/12 14:26:32;;;;;;;2.70;1.50;;;18.00;60.50;;;;;;10407022;28;20316;-65
2021/11/12 14:32:11;;;;;;;1.60;1.40;;;18.00;60.40;;;;;;10417537;28;20228;-65
2021/11/12 14:37:43;;;;;;;1.80;1.13;;;18.00;60.30;;;;;;10412407;28;20293;-65
2021/11/12 14:43:15;;;;;;;1.83;1.30;;;18.00;60.50;;;;;;10388867;28;20233;-65
2021/11/12 14:48:49;;;;;;;1.70;1.53;;;18.00;60.60;;;;;;10404279;28;20209;-65
2021/11/12 14:54:12;;;;;;;1.43;1.30;;;18.00;60.40;;;;;;10415288;28;20214;-64
2021/11/12 14:59:36;;;;;;;2.73;1.60;;;18.00;60.10;;;;;;10445819;28;20300;-65
2021/11/12 15:05:00;;;;;;;1.63;1.50;;;18.00;60.20;;;;;;10456022;28;20212;-65
2021/11/12 15:10:26;;;;;;;4.43;1.90;;;18.00;60.20;;;;;;10440021;28;20197;-65
2021/11/12 15:15:49;;;;;;;1.53;1.40;;;18.00;60.10;;;;;;10454600;28;20217;-63
2021/11/12 15:21:15;;;;;;;1.40;1.30;;;18.00;60.10;;;;;;10407458;28;20685;-65
2021/11/12 15:32:20;;;;;;;1.40;1.30;;;18.00;59.70;;;;;;10433552;28;20218;-65
2021/11/12 15:37:48;;;;;;;2.23;1.23;;;18.00;59.60;;;;;;10428421;28;20317;-67
2021/11/12 15:43:23;;;;;;;1.37;1.27;;;18.00;59.70;;;;;;10410008;28;20278;-66
2021/11/12 15:48:46;;;;;;;1.63;1.23;;;18.10;59.20;;;;;;10426763;28;20597;-66
2021/11/12 15:54:22;;;;;;;1.63;1.10;;;18.10;59.50;;;;;;10412694;28;20344;-66
2021/11/12 16:00:00;;;;;;;1.70;1.23;;;18.10;59.90;;;;;;10395960;28;20212;-66
2021/11/12 16:05:40;;;;;;;1.97;1.30;;;18.10;60.10;;;;;;10401006;28;20226;-65
2021/11/12 16:11:30;;;;;;;1.40;1.30;;;18.10;60.30;;;;;;10410722;28;20256;-68
2021/11/12 16:17:18;;;;;;;1.50;1.40;;;18.10;60.80;;;;;;10404546;28;20288;-66
2021/11/12 16:28:43;;;;;;;1.60;1.40;;;18.10;60.60;;;;;;10340763;28;20233;-66
2021/11/12 16:34:10;;;;;;;1.83;1.50;;;18.10;60.10;;;;;;10401052;28;20228;-65
2021/11/12 16:39:35;;;;;;;3.90;2.10;;;18.10;60.10;;;;;;10391694;28;20217;-66
2021/11/12 16:45:03;;;;;;;2.70;2.27;;;18.10;60.40;;;;;;10405998;28;20205;-66
2021/11/12 16:50:33;;;;;;;3.40;2.17;;;18.10;60.80;;;;;;10407075;28;20579;-67
2021/11/12 17:07:23;;;;;;;5.00;3.07;;;18.00;60.30;;;;;;10409237;28;20220;-66
2021/11/12 17:18:49;;;;;;;3.90;3.27;;;18.00;60.00;;;;;;10388946;28;20221;-67
2021/11/12 17:46:53;;;;;;;4.97;4.07;;;18.00;58.10;;;;;;10405280;28;20236;-68
2021/11/12 18:03:36;;;;;;;5.87;4.27;;;18.00;58.30;;;;;;10403956;28;20186;-67
2021/11/12 18:09:26;;;;;;;5.97;4.40;;;18.00;58.10;;;;;;10403984;28;20217;-67
2021/11/12 21:48:57;;;;;;;15.00;11.47;;;17.80;54.30;;;;;;10381836;28;20210;-62
2021/11/12 21:54:21;;;;;;;15.57;11.03;;;17.80;54.20;;;;;;10384514;28;20226;-62
2021/11/12 21:59:43;;;;;;;11.73;10.30;;;17.70;54.50;;;;;;10366991;28;20560;-63
2021/11/12 22:05:07;;;;;;;13.83;9.83;;;17.70;55.00;;;;;;10365634;28;20218;-61
2021/11/12 22:10:31;;;;;;;12.33;8.97;;;17.60;55.40;;;;;;10366866;28;20199;-63
2021/11/12 22:15:53;;;;;;;13.87;10.23;;;17.60;55.70;;;;;;10400542;28;20222;-61
2021/11/12 22:21:16;;;;;;;13.67;9.30;;;17.50;55.90;;;;;;10376015;28;20206;-62
2021/11/12 22:26:46;;;;;;;12.83;9.37;;;17.50;56.20;;;;;;10411169;28;20725;-62
2021/11/12 22:32:08;;;;;;;13.07;9.87;;;17.50;56.30;;;;;;10412619;28;20214;-62
2021/11/12 22:37:30;;;;;;;12.20;9.53;;;17.50;56.30;;;;;;10414697;28;20225;-63
2021/11/12 22:42:54;;;;;;;13.67;10.00;;;17.50;56.10;;;;;;10414440;28;20675;-62
2021/11/12 22:48:16;;;;;;;12.43;9.33;;;17.50;55.80;;;;;;10413997;28;20222;-62
2021/11/12 22:53:38;;;;;;;12.20;9.77;;;17.50;55.90;;;;;;10414143;28;20236;-62
2021/11/12 22:59:02;;;;;;;11.87;9.33;;;17.50;56.10;;;;;;10412483;28;20194;-63
2021/11/12 23:04:24;;;;;;;12.70;10.07;;;17.40;56.10;;;;;;10414149;28;20213;-63
2021/11/12 23:09:47;;;;;;;10.90;9.40;;;17.40;56.20;;;;;;10402965;28;20562;-63
2021/11/12 23:15:14;;;;;;;11.60;9.03;;;17.40;56.30;;;;;;10413116;28;20251;-63
2021/11/12 23:20:36;;;;;;;13.27;9.97;;;17.40;56.30;;;;;;10401454;28;20194;-63
2021/11/12 23:25:58;;;;;;;13.80;9.90;;;17.40;56.00;;;;;;10399228;28;20222;-63
2021/11/12 23:31:23;;;;;;;12.30;9.07;;;17.40;56.00;;;;;;10441011;28;20189;-63
2021/11/12 23:36:45;;;;;;;11.27;8.63;;;17.30;56.10;;;;;;10424465;28;20601;-63
2021/11/12 23:42:07;;;;;;;11.93;8.80;;;17.40;56.10;;;;;;10413519;28;20186;-63
2021/11/12 23:47:31;;;;;;;11.40;9.33;;;17.40;55.80;;;;;;10413152;28;20214;-63
2021/11/12 23:52:53;;;;;;;10.80;9.23;;;17.40;55.80;;;;;;10412107;28;20213;-62
2021/11/12 23:58:15;;;;;;;11.13;8.83;;;17.40;55.90;;;;;;10412864;28;20218;-63
